x

Buoy M01 - Jordan Basin (44037) Wave Buoy

3:04pm - Sun 25th Sep 2016 All times are EDT. -4 hours from GMT.

  • Sig Wave height 4.3ft
  • Peak Period 5s
  • Wind
    18mph, 22mph gusts
  • Sea Temp 58°f
  • Air Temp 55°f
  • Sea Pressure 1016.1mb
  • Buoy M01 - Jordan Basin
  • Buoy M01 - Jordan Basin

More Historic Weather Station data

Upgrade to MSW Pro to gain access to the past 30 days of data for over 8000 Wavebouys and Weather Stations around the globe.

Join Pro

Comparision Forecast

View Surf forecast
   
Sun 09/25 3:04pm 4.5ft 5s 18 22 mph 1016.1mb 58f 55f
2:04pm 4.5ft 5s 20 25 mph 1016.2mb 57f 53f
1:04pm 4.5ft 5s 18 22 mph 1016.7mb 57f 53f
12:04pm 4.5ft 5s 18 22 mph 1016.7mb 57f 52f
11:04am  -   -  18 22 mph 1016.8mb - 52f
10:04am  -   -  22 27 mph 1016.8mb - 52f
9:04am 5.5ft 5s 22 27 mph 1016.6mb 58f 52f
6:04am 5ft 5s 22 31 mph 1015.8mb 58f 52f
5:04am 6ft 5s 20 25 mph 1015.7mb 58f 53f
4:04am 4.5ft 5s 20 22 mph 1015.6mb 58f 53f
3:04am 5.5ft 5s 22 27 mph 1015.9mb 58f 53f
2:04am 5ft 5s 20 25 mph 1015.7mb 58f 54f
1:04am 5ft 5s 22 27 mph 1015.2mb 58f 55f
12:04am 4ft 4s 25 27 mph 1015.4mb 58f 57f
Sat 09/24 11:04pm 3.5ft 4s 22 27 mph 1015.4mb 58f 58f
10:04pm 2.5ft 4s 16 22 mph 1015.3mb 58f 59f
8:04pm 4ft 11s 13 16 mph 1015.8mb 59f 58f
7:04pm 2.5ft 4s 16 18 mph 1015.4mb 59f 59f
6:04pm  -   -  16 18 mph 1015.1mb - 58f
5:04pm 3.5ft 11s  -  mph - 59f -
4:04pm 2.5ft 5s 16 18 mph 1015.6mb 59f 58f
3:04pm 2.5ft 4s 16 18 mph 1015.8mb 59f 56f
2:04pm  -   -  11 13 mph 1016.4mb - 55f
12:04pm 2.5ft 5s 18 22 mph 1017.3mb 59f 54f
10:04am 4ft 11s 13 18 mph 1018mb 62f 55f
9:04am 4.5ft 11s 16 18 mph 1018.1mb 62f 56f
7:04am 4.5ft 11s 13 16 mph 1017.9mb 61f 56f
5:04am  -   -  11 13 mph 1017mb - 56f
4:04am 3ft 5s 13 16 mph 1017.6mb 59f 56f
2:04am 3.5ft 5s  -  mph - 59f -
12:04am 4.5ft 5s  -  mph - 59f -
Fri 09/23 10:04pm  -   -  18 22 mph 1016.8mb - 57f
8:04pm 4.5ft 5s 22 27 mph 1016.3mb 59f 58f
4:04pm 3.5ft 11s 18 22 mph 1014mb 60f 60f
2:04pm 2.5ft 4s 13 16 mph 1013.5mb 60f 64f
1:04pm 2.5ft 4s 13 16 mph 1013.7mb 60f 64f
12:04pm 3ft 4s 16 18 mph 1014mb 60f 65f
11:04am 2.5ft 4s 16 20 mph 1014.8mb 60f 65f
10:04am 3.5ft 4s 16 20 mph 1015.1mb 60f 65f
9:04am 4.5ft 11s 18 20 mph 1015.4mb 60f 64f
6:04am 2ft 4s 13 16 mph 1016.1mb 60f 64f
4:04am 3ft 11s 13 16 mph 1016.5mb 61f 64f
3:04am 3ft 11s  -  mph - 61f -
1:04am  -   -  11
mph
1018.3mb 61f 64f
12:04am 2.5ft 11s 11 13 mph 1018.8mb 62f 64f
Thu 09/22 11:04pm 1.6ft 11s 9 11 mph 1019.4mb 62f 64f
10:04pm 1.6ft 11s 7
mph
1019.7mb 62f 63f
9:04pm 2ft 11s 4
mph
1020mb 62f 62f
8:04pm 2.5ft 11s 7
mph
1020mb 62f 63f
7:04pm 2ft 11s 7
mph
1020mb 62f 64f
4:04pm 2ft 11s 4
mph
1019.9mb 63f 64f
12:04pm 2ft 11s 4
mph
1021.5mb 60f 63f
11:04am 2ft 11s 4
mph
1021.8mb 61f 64f
8:04am 2ft 11s  -  mph - 61f -
6:04am  -   -  7 9 mph 1020.5mb - 63f
5:04am 1ft 5s 11
mph
1020.2mb 63f 64f
4:04am 2.5ft 11s 11
mph
1019.6mb 62f 64f
3:04am 2.5ft 11s 9 11 mph 1019.5mb 62f 64f
1:04am 1.3ft 3s 9 11 mph 1019.9mb 61f 63f
12:04am 1.6ft 5s 11
mph
1019.8mb 61f 63f
Wed 09/21 11:04pm 2ft 6s 9 11 mph 1019.7mb 60f 64f
10:04pm 2ft 8s 11 13 mph 1019.6mb 60f 63f
9:04pm 2.5ft 8s 11 13 mph 1019.8mb 60f 64f